createdAt,value
2023-05-08T00:00:48.116Z,55.06
2023-05-08T00:03:19.947Z,55.41
2023-05-08T00:05:48.957Z,54.95
2023-05-08T00:08:17.962Z,55.69
2023-05-08T00:10:52.538Z,55.82
2023-05-08T00:13:21.921Z,55.93
2023-05-08T00:15:51.391Z,55.60
2023-05-08T00:18:23.021Z,55.95
2023-05-08T00:20:52.451Z,55.90
2023-05-08T00:23:21.993Z,56.03
2023-05-08T00:25:56.339Z,56.10
2023-05-08T00:28:25.646Z,56.16
2023-05-08T00:30:55.055Z,56.53
2023-05-08T00:33:26.322Z,56.98
2023-05-08T00:36:06.462Z,57.39
2023-05-08T00:38:37.122Z,57.13
2023-05-08T00:41:06.628Z,57.17
2023-05-08T00:43:37.308Z,57.37
2023-05-08T00:46:09.459Z,57.09
2023-05-08T00:48:42.455Z,57.88
2023-05-08T00:51:18.210Z,57.86
2023-05-08T00:53:47.891Z,57.27
2023-05-08T00:56:24.543Z,57.74
2023-05-08T00:58:54.354Z,57.17
2023-05-08T01:01:24.048Z,57.54
2023-05-08T01:03:56.032Z,57.50
2023-05-08T01:06:25.444Z,57.35
2023-05-08T01:08:54.838Z,57.89
2023-05-08T01:11:33.174Z,58.18
2023-05-08T01:14:14.036Z,58.36
2023-05-08T01:16:47.197Z,58.70
2023-05-08T01:19:53.280Z,59.76
2023-05-08T01:22:35.745Z,59.20
2023-05-08T01:25:23.974Z,59.64
2023-05-08T01:28:37.579Z,59.51
2023-05-08T01:31:22.934Z,60.08
2023-05-08T01:34:03.353Z,59.94
2023-05-08T01:36:40.938Z,60.04
2023-05-08T01:39:19.990Z,60.06
2023-05-08T01:41:59.154Z,60.16
2023-05-08T01:44:35.123Z,59.98
2023-05-08T01:47:09.533Z,60.63
2023-05-08T01:49:44.311Z,60.56
2023-05-08T01:52:20.467Z,59.94
2023-05-08T01:55:00.937Z,60.64
2023-05-08T01:57:32.928Z,60.24
2023-05-08T02:00:04.934Z,60.20
2023-05-08T02:02:40.002Z,60.13
2023-05-08T02:05:18.667Z,60.46
2023-05-08T02:07:51.098Z,60.28
2023-05-08T02:10:22.517Z,60.04
2023-05-08T02:12:52.940Z,59.82
2023-05-08T02:15:24.044Z,59.96
2023-05-08T02:17:56.375Z,59.98
2023-05-08T02:20:29.661Z,59.66
2023-05-08T02:22:59.810Z,59.50
2023-05-08T02:25:31.278Z,59.21
2023-05-08T02:28:08.357Z,59.51
2023-05-08T02:30:38.499Z,59.21
2023-05-08T02:33:12.270Z,59.00
2023-05-08T02:35:51.263Z,59.45
2023-05-08T02:38:23.316Z,58.86
2023-05-08T02:40:58.997Z,59.19
2023-05-08T02:46:14.588Z,58.63
2023-05-08T02:48:53.804Z,58.86
2023-05-08T02:51:31.151Z,59.34
2023-05-08T02:54:07.047Z,58.89
2023-05-08T02:56:40.924Z,59.16
2023-05-08T02:59:19.532Z,58.83
2023-05-08T03:01:54.052Z,58.68
2023-05-08T03:04:32.910Z,58.62
2023-05-08T03:09:45.129Z,58.64
2023-05-08T03:12:19.056Z,58.83
2023-05-08T03:14:56.655Z,59.11
2023-05-08T03:17:34.451Z,59.56
2023-05-08T03:20:10.049Z,58.68
2023-05-08T03:22:45.679Z,58.87
2023-05-08T03:25:19.183Z,58.96
2023-05-08T03:27:50.326Z,58.76
2023-05-08T03:30:21.375Z,58.48
2023-05-08T03:33:00.409Z,58.79
2023-05-08T03:35:35.511Z,58.93
2023-05-08T03:38:07.983Z,58.64
2023-05-08T03:40:39.591Z,58.63
2023-05-08T03:43:14.454Z,58.60
2023-05-08T03:45:55.828Z,58.27
2023-05-08T03:48:25.605Z,57.80
2023-05-08T03:50:58.019Z,57.56
2023-05-08T03:56:07.105Z,56.78
2023-05-08T03:58:42.778Z,56.94
2023-05-08T04:01:19.864Z,56.62
2023-05-08T04:03:58.856Z,56.60
2023-05-08T04:06:45.812Z,56.67
2023-05-08T04:09:26.580Z,56.28
2023-05-08T04:12:05.482Z,55.95
2023-05-08T04:14:43.384Z,56.33
2023-05-08T04:17:16.359Z,55.68
2023-05-08T04:19:53.934Z,55.71
2023-05-08T04:22:27.580Z,54.81
2023-05-08T04:25:03.151Z,53.31
2023-05-08T04:27:35.182Z,52.83
2023-05-08T04:30:05.260Z,51.08
2023-05-08T04:32:40.587Z,50.74
2023-05-08T04:35:17.912Z,49.84
2023-05-08T04:37:49.213Z,49.38
2023-05-08T04:40:22.120Z,49.01
2023-05-08T04:42:51.484Z,48.92
2023-05-08T04:45:22.236Z,49.09
2023-05-08T04:47:51.721Z,48.50
2023-05-08T04:50:21.742Z,49.04
2023-05-08T04:52:56.151Z,48.78
2023-05-08T04:55:28.301Z,48.72
2023-05-08T04:57:57.733Z,47.66
2023-05-08T05:00:27.303Z,47.09
2023-05-08T05:02:56.804Z,47.45
2023-05-08T05:05:26.146Z,46.96
2023-05-08T05:07:55.477Z,47.29
2023-05-08T05:10:24.810Z,47.22
2023-05-08T05:13:01.870Z,46.84
2023-05-08T05:15:31.909Z,47.52
2023-05-08T05:18:11.419Z,47.73
2023-05-08T05:20:42.058Z,47.84
2023-05-08T05:23:12.227Z,47.77
2023-05-08T05:25:42.052Z,47.59
2023-05-08T05:28:19.758Z,47.16
2023-05-08T05:30:49.952Z,46.21
2023-05-08T05:33:21.099Z,45.94
2023-05-08T05:35:50.600Z,45.89
2023-05-08T05:38:20.347Z,45.75
2023-05-08T05:40:50.053Z,45.76
2023-05-08T05:43:21.430Z,44.82
2023-05-08T05:45:51.012Z,44.81
2023-05-08T05:48:20.387Z,45.39
2023-05-08T05:50:49.883Z,45.18
2023-05-08T05:53:19.473Z,45.91
2023-05-08T05:55:49.234Z,45.44
2023-05-08T05:58:21.543Z,44.79
2023-05-08T06:00:51.564Z,43.99
2023-05-08T06:03:26.068Z,44.33
2023-05-08T06:05:56.527Z,44.56
2023-05-08T06:08:26.654Z,44.58
2023-05-08T06:10:56.344Z,44.15
2023-05-08T06:13:34.018Z,44.27
2023-05-08T06:16:03.683Z,44.39
2023-05-08T06:18:33.109Z,44.07
2023-05-08T06:23:47.946Z,43.58
2023-05-08T06:26:28.597Z,43.50
2023-05-08T06:28:59.807Z,41.83
2023-05-08T06:31:29.286Z,42.19
2023-05-08T06:33:58.755Z,41.75
2023-05-08T06:36:28.313Z,41.75
2023-05-08T06:39:02.585Z,41.78
2023-05-08T06:41:32.011Z,41.42
2023-05-08T06:44:03.122Z,41.48
2023-05-08T06:46:32.577Z,41.68
2023-05-08T06:49:01.965Z,41.65
2023-05-08T06:51:31.827Z,41.96
2023-05-08T06:54:01.436Z,41.34
2023-05-08T06:56:30.912Z,40.50
2023-05-08T06:59:07.794Z,40.43
2023-05-08T07:01:45.394Z,39.12
2023-05-08T07:04:14.818Z,39.06
2023-05-08T07:06:44.217Z,39.13
2023-05-08T07:09:14.054Z,39.14
2023-05-08T07:11:48.401Z,38.93
2023-05-08T07:14:22.763Z,39.36
2023-05-08T07:16:54.173Z,39.56
2023-05-08T07:19:38.370Z,39.35
2023-05-08T07:22:08.050Z,37.11
2023-05-08T07:24:38.746Z,36.60
2023-05-08T07:27:08.266Z,36.27
2023-05-08T07:29:42.679Z,36.00
2023-05-08T07:32:15.220Z,35.93
2023-05-08T07:34:44.628Z,35.50
2023-05-08T07:37:18.967Z,35.94
2023-05-08T07:40:01.315Z,35.92
2023-05-08T07:42:46.511Z,35.78
2023-05-08T07:45:16.553Z,35.48
2023-05-08T07:47:55.809Z,35.24
2023-05-08T07:50:26.807Z,34.88
2023-05-08T07:52:56.191Z,35.07
2023-05-08T07:55:25.641Z,34.48
2023-05-08T07:58:17.722Z,33.35
2023-05-08T08:00:47.039Z,34.06
2023-05-08T08:03:18.432Z,34.63
2023-05-08T08:05:48.088Z,33.91
2023-05-08T08:08:17.537Z,34.19
2023-05-08T08:10:47.047Z,34.63
2023-05-08T08:13:17.274Z,34.98
2023-05-08T08:15:46.739Z,34.78
2023-05-08T08:18:23.360Z,34.29
2023-05-08T08:20:53.012Z,33.90
2023-05-08T08:23:22.374Z,33.32
2023-05-08T08:25:53.204Z,33.14
2023-05-08T08:28:22.497Z,32.53
2023-05-08T08:30:51.805Z,32.24
2023-05-08T08:33:23.197Z,31.69
2023-05-08T08:35:54.118Z,30.87
2023-05-08T08:38:23.657Z,30.60
2023-05-08T08:41:05.901Z,31.65
2023-05-08T08:43:44.506Z,32.00
2023-05-08T08:46:26.061Z,32.58
2023-05-08T08:48:59.877Z,32.93
2023-05-08T08:51:33.556Z,32.81
2023-05-08T08:54:08.081Z,32.66
2023-05-08T08:56:52.250Z,33.13
2023-05-08T08:59:36.828Z,33.28
2023-05-08T09:02:17.000Z,32.59
2023-05-08T09:07:27.441Z,30.72
2023-05-08T09:09:57.377Z,31.57
2023-05-08T09:12:26.753Z,31.59
2023-05-08T09:14:56.087Z,31.33
2023-05-08T09:17:25.486Z,31.57
2023-05-08T09:20:17.008Z,31.21
2023-05-08T09:22:46.648Z,31.30
2023-05-08T09:25:21.168Z,31.03
2023-05-08T09:27:50.609Z,30.99
2023-05-08T09:30:34.822Z,30.94
2023-05-08T09:33:04.573Z,30.40
2023-05-08T09:35:45.373Z,30.29
2023-05-08T09:38:37.175Z,29.55
2023-05-08T09:41:11.615Z,29.05
2023-05-08T09:43:41.712Z,28.80
2023-05-08T09:46:24.121Z,29.50
2023-05-08T09:48:55.055Z,29.94
2023-05-08T09:51:33.156Z,28.81
2023-05-08T09:54:05.533Z,29.27
2023-05-08T09:56:40.114Z,29.41
2023-05-08T09:59:25.801Z,28.78
2023-05-08T10:02:00.554Z,28.77
2023-05-08T10:04:36.684Z,29.21
2023-05-08T10:07:13.204Z,28.61
2023-05-08T10:09:59.745Z,27.98
2023-05-08T10:12:30.168Z,27.97
2023-05-08T10:15:00.347Z,27.71
2023-05-08T10:17:40.637Z,27.96
2023-05-08T10:20:11.709Z,27.49
2023-05-08T10:22:46.904Z,27.83
2023-05-08T10:25:19.966Z,27.93
2023-05-08T10:27:59.499Z,27.24
2023-05-08T10:30:29.414Z,27.85
2023-05-08T10:33:05.193Z,28.11
2023-05-08T10:35:34.840Z,28.31
2023-05-08T10:38:07.941Z,28.09
2023-05-08T10:40:37.578Z,28.06
2023-05-08T10:43:09.275Z,26.88
2023-05-08T10:45:39.043Z,27.60
2023-05-08T10:48:21.931Z,28.03
2023-05-08T10:51:01.605Z,27.79
2023-05-08T10:53:39.181Z,28.64
2023-05-08T10:56:09.119Z,28.98
2023-05-08T10:58:40.006Z,28.73
2023-05-08T11:01:21.767Z,28.35
2023-05-08T11:03:55.370Z,28.15
2023-05-08T11:06:48.472Z,28.50
2023-05-08T11:09:31.500Z,28.54
2023-05-08T11:12:10.804Z,28.07
2023-05-08T11:14:49.423Z,28.00
2023-05-08T11:17:26.057Z,28.23
2023-05-08T11:20:01.791Z,28.87
2023-05-08T11:22:35.262Z,28.72
2023-05-08T11:25:13.820Z,29.92
2023-05-08T11:28:13.709Z,30.43
2023-05-08T11:30:43.254Z,30.37
2023-05-08T11:33:22.030Z,30.17
2023-05-08T11:35:58.966Z,30.23
2023-05-08T11:38:33.877Z,29.61
2023-05-08T11:44:21.411Z,30.04
2023-05-08T11:46:53.190Z,29.58
2023-05-08T11:49:27.006Z,30.04
2023-05-08T11:52:05.684Z,29.42
2023-05-08T11:54:35.482Z,29.18
2023-05-08T11:57:12.095Z,28.51
2023-05-08T11:59:43.519Z,28.51
2023-05-08T12:02:18.431Z,27.94
2023-05-08T12:04:48.719Z,28.81
2023-05-08T12:07:18.366Z,28.80
2023-05-08T12:09:48.889Z,28.79
2023-05-08T12:12:20.103Z,29.09
2023-05-08T12:14:51.995Z,29.71
2023-05-08T12:17:21.853Z,29.57
2023-05-08T12:20:01.236Z,29.71
2023-05-08T12:22:35.745Z,29.34
2023-05-08T12:25:12.631Z,28.88
2023-05-08T12:27:45.587Z,28.46
2023-05-08T12:30:17.141Z,27.94
2023-05-08T12:32:48.295Z,28.04
2023-05-08T12:35:18.207Z,28.21
2023-05-08T12:37:48.384Z,28.83
2023-05-08T12:40:29.441Z,28.85
2023-05-08T12:43:17.260Z,28.54
2023-05-08T12:51:40.835Z,28.76
2023-05-08T12:54:16.082Z,29.06
2023-05-08T12:56:46.033Z,29.05
2023-05-08T12:59:15.685Z,28.68
2023-05-08T13:01:54.343Z,28.69
2023-05-08T13:04:23.927Z,28.61
2023-05-08T13:07:07.391Z,28.67
2023-05-08T13:09:57.467Z,28.60
2023-05-08T13:12:26.993Z,28.56
2023-05-08T13:14:56.281Z,28.38
2023-05-08T13:17:25.718Z,28.14
2023-05-08T13:19:55.278Z,28.02
2023-05-08T13:22:31.884Z,27.96
2023-05-08T13:25:06.364Z,27.75
2023-05-08T13:27:35.775Z,27.89
2023-05-08T13:30:05.272Z,28.33
2023-05-08T13:32:34.897Z,28.25
2023-05-08T13:35:04.170Z,28.29
2023-05-08T13:37:35.651Z,28.85
2023-05-08T13:40:05.259Z,28.99
2023-05-08T13:42:34.618Z,29.12
2023-05-08T13:45:04.188Z,29.43
2023-05-08T13:47:39.861Z,29.92
2023-05-08T13:50:15.786Z,30.19
2023-05-08T13:52:47.434Z,29.88
2023-05-08T13:55:20.766Z,30.01
2023-05-08T13:57:50.386Z,30.43
2023-05-08T14:00:20.421Z,30.28
2023-05-08T14:05:25.829Z,30.13
2023-05-08T14:08:02.096Z,30.48
2023-05-08T14:10:31.601Z,30.26
2023-05-08T14:13:00.923Z,30.64
2023-05-08T14:15:37.039Z,30.83
2023-05-08T14:18:07.737Z,30.72
2023-05-08T14:20:37.169Z,30.27
2023-05-08T14:23:11.565Z,30.09
2023-05-08T14:25:46.121Z,29.86
2023-05-08T14:28:27.663Z,29.72
2023-05-08T14:31:02.143Z,29.68
2023-05-08T14:33:31.821Z,29.97
2023-05-08T14:36:01.156Z,29.74
2023-05-08T14:41:12.746Z,30.23
2023-05-08T14:43:42.473Z,30.17
2023-05-08T14:46:16.922Z,30.21
2023-05-08T14:48:57.047Z,29.95
2023-05-08T14:51:26.952Z,29.54
2023-05-08T14:53:58.712Z,29.47
2023-05-08T14:56:30.274Z,29.09
2023-05-08T14:59:10.872Z,28.97
2023-05-08T15:01:42.849Z,29.16
2023-05-08T15:04:12.679Z,29.10
2023-05-08T15:06:42.281Z,28.98
2023-05-08T15:09:18.681Z,28.68
2023-05-08T15:11:48.055Z,28.78
2023-05-08T15:14:17.348Z,29.06
2023-05-08T15:16:46.860Z,28.91
2023-05-08T15:19:16.632Z,29.42
2023-05-08T15:21:45.928Z,29.57
2023-05-08T15:24:15.627Z,29.52
2023-05-08T15:26:47.425Z,29.35
2023-05-08T15:29:21.776Z,29.89
2023-05-08T15:31:51.211Z,30.32
2023-05-08T15:34:20.721Z,30.10
2023-05-08T15:36:55.589Z,30.01
2023-05-08T15:39:30.134Z,30.66
2023-05-08T15:42:01.623Z,30.56
2023-05-08T15:44:42.070Z,30.95
2023-05-08T15:47:22.474Z,30.83
2023-05-08T15:49:52.339Z,30.45
2023-05-08T15:52:22.402Z,30.56
2023-05-08T15:54:52.448Z,30.53
2023-05-08T15:57:26.581Z,30.28
2023-05-08T15:59:56.012Z,30.90
2023-05-08T16:02:25.618Z,30.65
2023-05-08T16:05:00.589Z,30.39
2023-05-08T16:07:30.233Z,30.24
2023-05-08T16:09:59.672Z,30.23
2023-05-08T16:12:33.791Z,30.06
2023-05-08T16:15:05.334Z,30.98
2023-05-08T16:17:35.002Z,30.86
2023-05-08T16:20:07.827Z,29.97
2023-05-08T16:22:37.170Z,29.21
2023-05-08T16:25:07.182Z,28.37
2023-05-08T16:27:38.611Z,27.78
2023-05-08T16:30:10.114Z,27.83
2023-05-08T16:32:39.659Z,27.91
2023-05-08T16:35:10.742Z,27.53
2023-05-08T16:37:45.300Z,27.61
2023-05-08T16:40:15.110Z,27.81
2023-05-08T16:42:46.493Z,28.63
2023-05-08T16:45:20.800Z,29.00
2023-05-08T16:47:50.269Z,28.94
2023-05-08T16:50:19.506Z,28.55
2023-05-08T16:52:48.950Z,29.15
2023-05-08T16:55:18.548Z,28.66
2023-05-08T16:57:49.774Z,29.23
2023-05-08T17:00:21.726Z,29.25
2023-05-08T17:02:50.854Z,29.31
2023-05-08T17:05:20.493Z,29.90
2023-05-08T17:07:50.044Z,30.69
2023-05-08T17:10:19.332Z,31.04
2023-05-08T17:12:52.872Z,31.46
2023-05-08T17:15:23.518Z,31.66
2023-05-08T17:17:52.811Z,32.98
2023-05-08T17:20:22.156Z,32.88
2023-05-08T17:22:51.659Z,33.69
2023-05-08T17:25:22.066Z,34.14
2023-05-08T17:27:53.311Z,34.50
2023-05-08T17:30:23.219Z,34.90
2023-05-08T17:32:52.867Z,34.97
2023-05-08T17:35:22.860Z,34.77
2023-05-08T17:37:52.452Z,35.51
2023-05-08T17:40:21.781Z,35.34
2023-05-08T17:42:54.724Z,36.00
2023-05-08T17:45:24.096Z,36.02
2023-05-08T17:47:58.336Z,35.84
2023-05-08T17:50:28.096Z,36.71
2023-05-08T17:52:57.473Z,37.20
2023-05-08T17:55:34.307Z,37.14
2023-05-08T17:58:05.579Z,37.76
2023-05-08T18:00:41.126Z,38.11
2023-05-08T18:03:11.815Z,38.33
2023-05-08T18:08:27.798Z,38.08
2023-05-08T18:10:57.190Z,38.56
2023-05-08T18:13:28.887Z,38.99
2023-05-08T18:15:58.136Z,38.01
2023-05-08T18:18:27.437Z,39.02
2023-05-08T18:21:08.653Z,39.57
2023-05-08T18:23:38.741Z,39.83
2023-05-08T18:26:09.231Z,39.98
2023-05-08T18:28:40.490Z,39.53
2023-05-08T18:31:10.590Z,39.26
2023-05-08T18:33:39.915Z,39.22
2023-05-08T18:36:09.555Z,38.64
2023-05-08T18:38:41.249Z,38.69
2023-05-08T18:41:10.849Z,39.06
2023-05-08T18:43:47.665Z,40.11
2023-05-08T18:46:17.442Z,39.92
2023-05-08T18:48:46.839Z,40.18
2023-05-08T18:51:16.145Z,40.23
2023-05-08T18:53:45.481Z,40.18
2023-05-08T18:56:15.034Z,40.79
2023-05-08T18:58:46.279Z,41.41
2023-05-08T19:01:20.079Z,40.96
2023-05-08T19:03:49.981Z,41.74
2023-05-08T19:06:19.935Z,41.84
2023-05-08T19:08:54.538Z,42.43
2023-05-08T19:11:24.065Z,42.28
2023-05-08T19:13:56.100Z,43.05
2023-05-08T19:16:25.963Z,42.54
2023-05-08T19:18:55.756Z,42.81
2023-05-08T19:21:31.647Z,43.73
2023-05-08T19:24:01.259Z,43.63
2023-05-08T19:26:30.745Z,43.52
2023-05-08T19:29:09.651Z,44.77
2023-05-08T19:31:39.135Z,43.89
2023-05-08T19:34:08.812Z,44.28
2023-05-08T19:36:38.202Z,44.07
2023-05-08T19:41:44.325Z,44.26
2023-05-08T19:44:15.736Z,44.23
2023-05-08T19:46:46.538Z,44.43
2023-05-08T19:49:16.985Z,44.82
2023-05-08T19:51:48.167Z,44.64
2023-05-08T19:54:22.528Z,44.46
2023-05-08T19:56:52.064Z,44.32
2023-05-08T19:59:23.198Z,44.86
2023-05-08T20:01:53.397Z,45.61
2023-05-08T20:04:23.838Z,46.71
2023-05-08T20:06:53.289Z,46.48
2023-05-08T20:09:22.614Z,46.65
2023-05-08T20:11:52.016Z,47.01
2023-05-08T20:14:23.348Z,48.32
2023-05-08T20:16:57.169Z,48.55
2023-05-08T20:19:26.677Z,49.39
2023-05-08T20:21:56.235Z,50.24
2023-05-08T20:24:31.222Z,50.76
2023-05-08T20:27:11.922Z,52.36
2023-05-08T20:29:43.311Z,51.74
2023-05-08T20:32:14.420Z,51.30
2023-05-08T20:34:49.512Z,51.35
2023-05-08T20:37:23.804Z,52.34
2023-05-08T20:39:58.088Z,51.74
2023-05-08T20:42:27.386Z,51.94
2023-05-08T20:44:58.856Z,52.34
2023-05-08T20:47:33.629Z,52.01
2023-05-08T20:50:03.136Z,52.08
2023-05-08T20:52:35.314Z,51.39
2023-05-08T20:55:08.219Z,50.79
2023-05-08T20:57:37.571Z,49.97
2023-05-08T21:00:10.494Z,48.46
2023-05-08T21:02:42.005Z,46.68
2023-05-08T21:05:12.035Z,45.79
2023-05-08T21:07:42.140Z,45.92
2023-05-08T21:10:12.382Z,47.52
2023-05-08T21:12:44.094Z,47.66
2023-05-08T21:15:20.496Z,47.28
2023-05-08T21:17:50.136Z,47.58
2023-05-08T21:20:20.016Z,47.51
2023-05-08T21:22:49.469Z,47.24
2023-05-08T21:25:21.007Z,47.82
2023-05-08T21:27:50.343Z,47.66
2023-05-08T21:30:21.835Z,47.02
2023-05-08T21:32:51.669Z,46.61
2023-05-08T21:35:21.235Z,46.49
2023-05-08T21:37:54.653Z,46.00
2023-05-08T21:40:24.697Z,46.17
2023-05-08T21:42:54.219Z,45.79
2023-05-08T21:45:25.559Z,45.47
2023-05-08T21:48:00.434Z,45.28
2023-05-08T21:50:29.997Z,45.25
2023-05-08T21:53:04.291Z,45.27
2023-05-08T21:55:33.671Z,45.38
2023-05-08T21:58:02.835Z,44.82
2023-05-08T22:00:34.204Z,44.63
2023-05-08T22:03:08.687Z,43.84
2023-05-08T22:05:38.108Z,43.73
2023-05-08T22:08:08.140Z,44.11
2023-05-08T22:10:48.460Z,43.55
2023-05-08T22:13:17.814Z,44.19
2023-05-08T22:15:49.453Z,44.13
2023-05-08T22:18:18.811Z,44.59
2023-05-08T22:20:48.050Z,45.00
2023-05-08T22:23:17.820Z,45.02
2023-05-08T22:25:47.074Z,45.49
2023-05-08T22:30:53.604Z,46.06
2023-05-08T22:33:23.038Z,46.14
2023-05-08T22:35:52.597Z,46.99
2023-05-08T22:38:21.880Z,46.97
2023-05-08T22:40:52.113Z,47.34
2023-05-08T22:43:21.661Z,46.99
2023-05-08T22:45:52.987Z,48.24
2023-05-08T22:48:22.576Z,48.12
2023-05-08T22:50:52.766Z,48.28
2023-05-08T22:53:22.176Z,49.02
2023-05-08T22:55:51.413Z,49.08
2023-05-08T22:58:20.772Z,48.94
2023-05-08T23:00:50.189Z,48.64
2023-05-08T23:03:27.368Z,48.78
2023-05-08T23:05:56.517Z,48.76
2023-05-08T23:08:30.856Z,49.42
2023-05-08T23:11:00.143Z,49.28
2023-05-08T23:13:34.610Z,49.32
2023-05-08T23:16:09.020Z,49.94
2023-05-08T23:18:40.305Z,50.65
2023-05-08T23:21:10.393Z,51.13
2023-05-08T23:23:39.533Z,51.30
2023-05-08T23:26:08.729Z,51.48
2023-05-08T23:28:38.726Z,52.18
2023-05-08T23:31:08.133Z,52.33
2023-05-08T23:33:44.326Z,52.65
2023-05-08T23:36:20.356Z,52.21
2023-05-08T23:38:56.194Z,52.58
2023-05-08T23:41:25.838Z,53.23
2023-05-08T23:43:55.433Z,54.11
2023-05-08T23:46:24.817Z,54.81
2023-05-08T23:48:56.224Z,54.86
2023-05-08T23:51:25.697Z,54.38
2023-05-08T23:53:54.896Z,54.88
2023-05-08T23:56:24.478Z,55.59
2023-05-08T23:58:58.842Z,57.00
